createdAt,value
2022-11-06T00:01:21.413Z,360
2022-11-06T00:05:23.978Z,360
2022-11-06T00:07:25.052Z,360
2022-11-06T00:11:28.428Z,360
2022-11-06T00:15:31.079Z,360
2022-11-06T00:17:33.015Z,360
2022-11-06T00:21:36.249Z,360
2022-11-06T00:25:39.550Z,360
2022-11-06T00:27:41.379Z,360
2022-11-06T00:31:44.892Z,360
2022-11-06T00:33:46.389Z,360
2022-11-06T00:35:47.859Z,360
2022-11-06T00:37:49.740Z,360
2022-11-06T00:43:53.616Z,360
2022-11-06T00:45:55.027Z,360
2022-11-06T00:47:56.400Z,360
2022-11-06T00:49:57.936Z,360
2022-11-06T00:54:00.378Z,360
2022-11-06T00:56:02.244Z,360
2022-11-06T00:58:03.270Z,360
2022-11-06T01:00:04.873Z,360
2022-11-06T01:04:08.581Z,360
2022-11-06T01:06:09.542Z,360
2022-11-06T01:08:11.687Z,360
2022-11-06T01:10:12.697Z,360
2022-11-06T01:12:14.317Z,360
2022-11-06T01:14:15.118Z,360
2022-11-06T01:16:16.518Z,360
2022-11-06T01:18:17.596Z,360
2022-11-06T01:20:19.578Z,360
2022-11-06T01:22:21.242Z,360
2022-11-06T01:24:22.277Z,360
2022-11-06T01:26:37.071Z,360
2022-11-06T01:32:28.076Z,360
2022-11-06T01:36:31.254Z,360
2022-11-06T01:40:34.744Z,360
2022-11-06T01:42:36.164Z,360
2022-11-06T01:46:39.798Z,360
2022-11-06T01:48:41.152Z,360
2022-11-06T01:50:42.511Z,360
2022-11-06T01:52:44.396Z,360
2022-11-06T01:54:45.701Z,360
2022-11-06T01:56:47.320Z,360
2022-11-06T01:58:49.210Z,360
2022-11-06T02:00:50.694Z,360
2022-11-06T02:02:52.574Z,360
2022-11-06T02:04:53.593Z,360
2022-11-06T02:08:56.214Z,360
2022-11-06T02:10:57.926Z,360
2022-11-06T02:12:59.573Z,360
2022-11-06T02:15:01.299Z,360
2022-11-06T02:19:04.259Z,360
2022-11-06T02:21:05.277Z,360
2022-11-06T02:23:06.420Z,360
2022-11-06T02:25:07.856Z,360
2022-11-06T02:27:08.909Z,360
2022-11-06T02:29:10.887Z,360
2022-11-06T02:31:12.156Z,360
2022-11-06T02:33:13.829Z,360
2022-11-06T02:35:15.039Z,360
2022-11-06T02:37:16.152Z,360
2022-11-06T02:39:17.834Z,360
2022-11-06T02:41:18.907Z,360
2022-11-06T02:43:20.715Z,360
2022-11-06T02:45:21.762Z,360
2022-11-06T02:47:23.158Z,360
2022-11-06T02:51:26.294Z,360
2022-11-06T02:53:27.730Z,360
2022-11-06T02:57:30.782Z,360
2022-11-06T03:01:33.297Z,360
2022-11-06T03:03:35.052Z,360
2022-11-06T03:05:36.114Z,360
2022-11-06T03:07:37.550Z,360
2022-11-06T03:11:40.571Z,360
2022-11-06T03:13:42.459Z,360
2022-11-06T03:15:43.648Z,360
2022-11-06T03:17:44.914Z,360
2022-11-06T03:23:49.206Z,360
2022-11-06T03:25:50.921Z,360
2022-11-06T03:27:53.013Z,360
2022-11-06T03:29:54.927Z,360
2022-11-06T03:33:58.475Z,360
2022-11-06T03:35:59.966Z,360
2022-11-06T03:38:01.423Z,360
2022-11-06T03:40:03.393Z,360
2022-11-06T03:44:05.904Z,360
2022-11-06T03:46:07.089Z,360
2022-11-06T03:50:10.751Z,360
2022-11-06T03:54:14.319Z,360
2022-11-06T03:56:15.585Z,360
2022-11-06T03:58:16.703Z,360
2022-11-06T04:00:17.664Z,360
2022-11-06T04:04:20.915Z,360
2022-11-06T04:06:21.974Z,360
2022-11-06T04:08:23.937Z,360
2022-11-06T04:10:25.216Z,360
2022-11-06T04:12:26.412Z,360
2022-11-06T04:16:29.821Z,360
2022-11-06T04:18:31.069Z,360
2022-11-06T04:20:32.379Z,360
2022-11-06T04:22:33.873Z,360
2022-11-06T04:26:36.489Z,360
2022-11-06T04:28:38.440Z,360
2022-11-06T04:32:41.419Z,360
2022-11-06T04:36:44.998Z,360
2022-11-06T04:38:46.363Z,360
2022-11-06T04:42:48.594Z,360
2022-11-06T04:46:52.166Z,360
2022-11-06T04:48:54.045Z,360
2022-11-06T04:52:57.379Z,360
2022-11-06T04:54:58.646Z,360
2022-11-06T04:57:00.623Z,360
2022-11-06T04:59:02.311Z,360
2022-11-06T05:03:49.780Z,360
2022-11-06T05:05:51.821Z,360
2022-11-06T05:09:55.413Z,360
2022-11-06T05:11:56.552Z,360
2022-11-06T05:13:58.192Z,360
2022-11-06T05:16:00.168Z,360
2022-11-06T05:20:03.413Z,360
2022-11-06T05:24:06.244Z,360
2022-11-06T05:26:07.676Z,360
2022-11-06T05:28:09.413Z,360
2022-11-06T05:30:11.339Z,360
2022-11-06T05:32:12.956Z,360
2022-11-06T05:34:14.090Z,360
2022-11-06T05:36:15.197Z,360
2022-11-06T05:38:16.588Z,360
2022-11-06T05:40:18.249Z,360
2022-11-06T05:42:20.246Z,360
2022-11-06T05:44:22.237Z,360
2022-11-06T05:46:46.737Z,360
2022-11-06T05:48:25.104Z,360
2022-11-06T05:52:28.229Z,360
2022-11-06T05:54:30.218Z,360
2022-11-06T05:56:32.095Z,360
2022-11-06T05:58:33.588Z,360
2022-11-06T06:02:37.586Z,360
2022-11-06T06:06:40.911Z,360
2022-11-06T06:08:42.354Z,360
2022-11-06T06:10:43.450Z,360
2022-11-06T06:12:44.829Z,360
2022-11-06T06:14:50.199Z,360
2022-11-06T06:18:49.305Z,360
2022-11-06T06:20:50.964Z,360
2022-11-06T06:22:52.448Z,360
2022-11-06T06:24:54.616Z,360
2022-11-06T06:26:55.691Z,360
2022-11-06T06:28:56.921Z,360
2022-11-06T06:31:01.449Z,360
2022-11-06T06:35:01.439Z,360
2022-11-06T06:37:03.384Z,360
2022-11-06T06:39:05.117Z,360
2022-11-06T06:41:06.975Z,360
2022-11-06T06:45:10.227Z,360
2022-11-06T06:47:11.928Z,360
2022-11-06T06:49:13.744Z,360
2022-11-06T06:51:17.432Z,360
2022-11-06T06:53:16.515Z,360
2022-11-06T06:55:18.327Z,360
2022-11-06T06:57:19.689Z,360
2022-11-06T06:59:21.496Z,360
2022-11-06T07:01:23.014Z,360
2022-11-06T07:03:24.093Z,360
2022-11-06T07:05:25.959Z,360
2022-11-06T07:07:27.013Z,360
2022-11-06T07:09:28.192Z,360
2022-11-06T07:11:29.689Z,360
2022-11-06T07:13:35.317Z,360
2022-11-06T07:17:33.522Z,360
2022-11-06T07:19:34.687Z,360
2022-11-06T07:21:35.715Z,360
2022-11-06T07:23:36.915Z,360
2022-11-06T07:25:38.124Z,360
2022-11-06T07:27:39.872Z,360
2022-11-06T07:29:41.310Z,360
2022-11-06T07:31:42.986Z,360
2022-11-06T07:33:44.990Z,360
2022-11-06T07:37:48.925Z,360
2022-11-06T07:39:50.043Z,360
2022-11-06T07:41:51.494Z,360
2022-11-06T07:43:52.724Z,360
2022-11-06T07:50:06.106Z,360
2022-11-06T07:54:00.664Z,360
2022-11-06T07:56:01.809Z,360
2022-11-06T08:00:04.827Z,360
2022-11-06T08:02:06.111Z,360
2022-11-06T08:04:07.333Z,360
2022-11-06T08:06:08.592Z,360
2022-11-06T08:10:13.181Z,360
2022-11-06T08:12:15.419Z,360
2022-11-06T08:14:16.738Z,360
2022-11-06T08:16:17.767Z,360
2022-11-06T08:20:20.790Z,120
2022-11-06T08:22:22.163Z,120
2022-11-06T08:24:22.965Z,120
2022-11-06T08:26:24.685Z,120
2022-11-06T08:32:29.157Z,120
2022-11-06T08:34:30.576Z,120
2022-11-06T08:36:31.514Z,120
2022-11-06T08:38:32.475Z,120
2022-11-06T08:40:33.783Z,120
2022-11-06T08:42:35.551Z,120
2022-11-06T08:46:38.352Z,120
2022-11-06T08:48:40.160Z,120
2022-11-06T08:52:43.527Z,120
2022-11-06T08:54:44.480Z,122
2022-11-06T08:58:50.176Z,122
2022-11-06T09:00:48.788Z,122
2022-11-06T09:04:51.205Z,134
2022-11-06T09:08:54.601Z,360
2022-11-06T09:10:58.285Z,360
2022-11-06T09:12:56.968Z,360
2022-11-06T09:14:57.972Z,360
2022-11-06T09:16:59.075Z,360
2022-11-06T09:19:00.740Z,360
2022-11-06T09:25:04.704Z,360
2022-11-06T09:27:05.831Z,360
2022-11-06T09:29:07.280Z,360
2022-11-06T09:31:08.449Z,360
2022-11-06T09:33:13.441Z,360
2022-11-06T09:35:11.435Z,360
2022-11-06T09:37:12.429Z,360
2022-11-06T09:41:15.280Z,360
2022-11-06T09:43:16.565Z,360
2022-11-06T09:45:18.316Z,360
2022-11-06T09:47:20.128Z,360
2022-11-06T09:49:21.484Z,360
2022-11-06T09:51:23.157Z,19
2022-11-06T09:53:24.720Z,21
2022-11-06T09:57:27.417Z,21
2022-11-06T10:01:30.397Z,15
2022-11-06T10:03:31.441Z,15
2022-11-06T10:05:33.214Z,15
2022-11-06T10:07:34.755Z,15
2022-11-06T10:09:36.231Z,15
2022-11-06T10:11:37.888Z,15
2022-11-06T10:13:39.145Z,15
2022-11-06T10:15:40.561Z,20
2022-11-06T10:17:42.270Z,20
2022-11-06T10:19:43.185Z,20
2022-11-06T10:23:45.815Z,20
2022-11-06T10:25:46.964Z,20
2022-11-06T10:27:48.687Z,20
2022-11-06T10:29:50.306Z,20
2022-11-06T10:33:52.943Z,20
2022-11-06T10:35:54.736Z,13
2022-11-06T10:37:55.808Z,13
2022-11-06T10:39:56.802Z,13
2022-11-06T10:43:59.678Z,13
2022-11-06T10:46:01.170Z,13
2022-11-06T10:48:02.728Z,6
2022-11-06T10:50:03.893Z,10
2022-11-06T10:56:10.943Z,360
2022-11-06T10:58:10.696Z,171
2022-11-06T11:00:11.724Z,173
2022-11-06T11:02:13.173Z,168
2022-11-06T11:06:15.697Z,168
2022-11-06T11:08:16.882Z,168
2022-11-06T11:10:18.161Z,168
2022-11-06T11:12:19.835Z,154
2022-11-06T11:16:23.279Z,105
2022-11-06T11:18:25.024Z,105
2022-11-06T11:22:32.924Z,119
2022-11-06T11:26:31.449Z,143
2022-11-06T11:28:33.072Z,131
2022-11-06T11:32:36.471Z,117
2022-11-06T11:36:38.709Z,79
2022-11-06T11:38:40.285Z,110
2022-11-06T11:40:41.312Z,360
2022-11-06T11:42:42.770Z,85
2022-11-06T11:44:44.624Z,132
2022-11-06T11:48:48.022Z,169
2022-11-06T11:49:31.826Z,126
2022-11-06T11:53:34.651Z,170
2022-11-06T11:55:36.016Z,61
2022-11-06T11:59:39.429Z,163
2022-11-06T12:01:40.916Z,111
2022-11-06T12:03:41.780Z,172
2022-11-06T12:05:42.747Z,173
2022-11-06T12:09:44.952Z,203
2022-11-06T12:11:45.925Z,187
2022-11-06T12:13:47.072Z,133
2022-11-06T12:15:48.071Z,185
2022-11-06T12:17:49.871Z,184
2022-11-06T12:19:51.059Z,139
2022-11-06T12:21:52.378Z,128
2022-11-06T12:23:53.595Z,174
2022-11-06T12:25:55.178Z,111
2022-11-06T12:27:56.811Z,193
2022-11-06T12:29:57.786Z,150
2022-11-06T12:31:58.792Z,117
2022-11-06T12:34:05.998Z,205
2022-11-06T12:36:02.172Z,131
2022-11-06T12:38:03.468Z,131
2022-11-06T12:42:06.726Z,134
2022-11-06T12:44:08.428Z,141
2022-11-06T12:46:10.035Z,63
2022-11-06T12:48:11.724Z,76
2022-11-06T12:52:14.795Z,163
2022-11-06T12:54:16.529Z,190
2022-11-06T12:56:17.828Z,128
2022-11-06T12:58:19.692Z,175
2022-11-06T13:00:21.623Z,176
2022-11-06T13:02:23.402Z,161
2022-11-06T13:04:24.317Z,66
2022-11-06T13:06:25.614Z,162
2022-11-06T13:08:27.256Z,120
2022-11-06T13:10:28.650Z,360
2022-11-06T13:12:29.673Z,128
2022-11-06T13:14:30.738Z,149
2022-11-06T13:16:32.281Z,148
2022-11-06T13:18:33.559Z,148
2022-11-06T13:20:35.114Z,90
2022-11-06T13:24:38.779Z,96
2022-11-06T13:26:40.531Z,119
2022-11-06T13:30:43.493Z,129
2022-11-06T13:34:46.724Z,152
2022-11-06T13:36:48.611Z,74
2022-11-06T13:38:50.179Z,222
2022-11-06T13:40:51.196Z,109
2022-11-06T13:44:53.800Z,152
2022-11-06T13:46:55.371Z,140
2022-11-06T13:48:57.219Z,101
2022-11-06T13:50:58.906Z,206
2022-11-06T13:53:00.548Z,103
2022-11-06T13:55:01.716Z,132
2022-11-06T13:57:03.033Z,201
2022-11-06T13:59:04.294Z,201
2022-11-06T14:01:06.056Z,201
2022-11-06T14:03:07.189Z,114
2022-11-06T14:07:09.998Z,129
2022-11-06T14:09:11.598Z,170
2022-11-06T14:11:12.740Z,168
2022-11-06T14:13:13.773Z,170
2022-11-06T14:17:16.477Z,360
2022-11-06T14:19:18.293Z,164
2022-11-06T14:23:20.945Z,360
2022-11-06T14:27:24.063Z,189
2022-11-06T14:29:25.887Z,173
2022-11-06T14:31:30.062Z,156
2022-11-06T14:33:28.803Z,129
2022-11-06T14:37:32.749Z,147
2022-11-06T14:39:34.275Z,143
2022-11-06T14:41:35.404Z,360
2022-11-06T14:43:36.655Z,109
2022-11-06T14:45:38.002Z,360
2022-11-06T14:47:39.005Z,134
2022-11-06T14:49:40.078Z,172
2022-11-06T14:53:43.369Z,147
2022-11-06T14:55:45.044Z,168
2022-11-06T14:59:48.358Z,199
2022-11-06T15:01:49.751Z,130
2022-11-06T15:05:52.977Z,182
2022-11-06T15:09:55.213Z,134
2022-11-06T15:11:56.666Z,123
2022-11-06T15:15:58.729Z,68
2022-11-06T15:17:59.784Z,63
2022-11-06T15:20:01.487Z,360
2022-11-06T15:22:03.377Z,78
2022-11-06T15:24:04.366Z,160
2022-11-06T15:26:05.444Z,82
2022-11-06T15:28:07.323Z,360
2022-11-06T15:30:09.211Z,172
2022-11-06T15:32:10.292Z,65
2022-11-06T15:34:12.205Z,65
2022-11-06T15:36:13.595Z,65
2022-11-06T15:38:15.265Z,65
2022-11-06T15:40:16.688Z,65
2022-11-06T15:42:18.247Z,65
2022-11-06T15:44:19.585Z,65
2022-11-06T15:48:22.360Z,65
2022-11-06T15:50:23.505Z,65
2022-11-06T15:54:26.561Z,65
2022-11-06T15:58:30.977Z,65
2022-11-06T16:00:30.663Z,65
2022-11-06T16:02:32.236Z,65
2022-11-06T16:04:34.032Z,65
2022-11-06T16:06:35.730Z,62
2022-11-06T16:08:37.092Z,62
2022-11-06T16:10:38.287Z,62
2022-11-06T16:12:40.101Z,62
2022-11-06T16:14:41.151Z,62
2022-11-06T16:16:43.063Z,62
2022-11-06T16:18:44.592Z,62
2022-11-06T16:20:45.912Z,62
2022-11-06T16:22:47.343Z,62
2022-11-06T16:24:48.614Z,62
2022-11-06T16:26:50.528Z,62
2022-11-06T16:30:53.294Z,62
2022-11-06T16:32:55.163Z,62
2022-11-06T16:34:56.870Z,62
2022-11-06T16:36:58.657Z,62
2022-11-06T16:41:01.683Z,62
2022-11-06T16:43:03.344Z,62
2022-11-06T16:47:06.267Z,62
2022-11-06T16:51:09.058Z,62
2022-11-06T16:53:10.651Z,62
2022-11-06T16:55:16.139Z,170
2022-11-06T16:57:12.698Z,169
2022-11-06T17:03:17.340Z,169
2022-11-06T17:05:19.239Z,131
2022-11-06T17:07:20.526Z,131
2022-11-06T17:09:22.226Z,176
2022-11-06T17:13:24.788Z,112
2022-11-06T17:15:26.596Z,112
2022-11-06T17:17:27.650Z,117
2022-11-06T17:19:28.944Z,154
2022-11-06T17:23:32.404Z,157
2022-11-06T17:25:33.435Z,157
2022-11-06T17:29:35.755Z,157
2022-11-06T17:33:38.586Z,82
2022-11-06T17:35:40.310Z,360
2022-11-06T17:37:41.916Z,120
2022-11-06T17:39:43.645Z,100
2022-11-06T17:43:46.618Z,152
2022-11-06T17:45:48.129Z,101
2022-11-06T17:49:51.056Z,183
2022-11-06T17:51:52.420Z,124
2022-11-06T17:55:56.112Z,176
2022-11-06T17:59:59.075Z,360
2022-11-06T18:02:00.834Z,194
2022-11-06T18:06:03.246Z,172
2022-11-06T18:08:04.784Z,185
2022-11-06T18:12:07.443Z,156
2022-11-06T18:16:09.763Z,152
2022-11-06T18:18:10.989Z,152
2022-11-06T18:22:13.632Z,158
2022-11-06T18:26:17.006Z,169
2022-11-06T18:28:18.620Z,169
2022-11-06T18:30:19.544Z,169
2022-11-06T18:32:20.931Z,170
2022-11-06T18:34:22.106Z,123
2022-11-06T18:37:07.299Z,124
2022-11-06T18:39:08.628Z,123
2022-11-06T18:41:10.579Z,123
2022-11-06T18:43:12.130Z,124
2022-11-06T18:45:21.550Z,124
2022-11-06T18:49:16.243Z,126
2022-11-06T18:51:27.727Z,170
2022-11-06T18:55:21.114Z,114
2022-11-06T18:59:23.919Z,108
2022-11-06T19:01:25.634Z,227
2022-11-06T19:03:26.529Z,227
2022-11-06T19:05:28.335Z,227
2022-11-06T19:09:31.184Z,81
2022-11-06T19:11:32.454Z,82
2022-11-06T19:13:33.849Z,134
2022-11-06T19:15:35.220Z,152
2022-11-06T19:19:37.989Z,152
2022-11-06T19:21:39.336Z,152
2022-11-06T19:25:41.722Z,153
2022-11-06T19:27:43.338Z,153
2022-11-06T19:29:44.722Z,152
2022-11-06T19:31:46.320Z,152
2022-11-06T19:33:47.572Z,152
2022-11-06T19:37:50.431Z,152
2022-11-06T19:39:52.371Z,152
2022-11-06T19:41:53.657Z,152
2022-11-06T19:43:54.818Z,152
2022-11-06T19:47:58.099Z,152
2022-11-06T19:49:59.871Z,152
2022-11-06T19:52:40.735Z,152
2022-11-06T19:54:02.505Z,152
2022-11-06T19:58:05.270Z,152
2022-11-06T20:00:11.105Z,152
2022-11-06T20:02:08.107Z,152
2022-11-06T20:04:09.676Z,152
2022-11-06T20:08:12.546Z,197
2022-11-06T20:10:13.697Z,197
2022-11-06T20:12:15.312Z,197
2022-11-06T20:14:16.625Z,183
2022-11-06T20:16:17.741Z,183
2022-11-06T20:20:21.022Z,186
2022-11-06T20:24:24.003Z,188
2022-11-06T20:26:25.448Z,188
2022-11-06T20:30:28.212Z,188
2022-11-06T20:32:29.604Z,188
2022-11-06T20:36:32.233Z,188
2022-11-06T20:40:34.728Z,188
2022-11-06T20:42:35.856Z,188
2022-11-06T20:46:38.895Z,160
2022-11-06T20:50:41.378Z,169
2022-11-06T20:52:43.014Z,169
2022-11-06T20:56:46.031Z,169
2022-11-06T20:58:47.637Z,169
2022-11-06T21:00:49.216Z,169
2022-11-06T21:02:50.963Z,169
2022-11-06T21:04:52.251Z,169
2022-11-06T21:06:53.688Z,169
2022-11-06T21:08:54.735Z,169
2022-11-06T21:10:55.844Z,169
2022-11-06T21:12:57.173Z,169
2022-11-06T21:14:58.192Z,169
2022-11-06T21:19:00.896Z,169
2022-11-06T21:21:02.210Z,169
2022-11-06T21:23:03.645Z,169
2022-11-06T21:25:04.823Z,169
2022-11-06T21:29:07.020Z,169
2022-11-06T21:31:08.811Z,169
2022-11-06T21:33:10.222Z,169
2022-11-06T21:35:12.083Z,169
2022-11-06T21:37:13.204Z,169
2022-11-06T21:39:15.061Z,169
2022-11-06T21:41:16.402Z,170
2022-11-06T21:43:17.897Z,170
2022-11-06T21:45:18.889Z,170
2022-11-06T21:47:20.783Z,170
2022-11-06T21:49:21.909Z,170
2022-11-06T21:51:23.739Z,170
2022-11-06T21:53:25.325Z,170
2022-11-06T21:55:27.263Z,170
2022-11-06T21:57:28.621Z,170
2022-11-06T22:01:31.354Z,170
2022-11-06T22:03:32.538Z,170
2022-11-06T22:05:33.927Z,170
2022-11-06T22:07:35.077Z,170
2022-11-06T22:11:38.089Z,170
2022-11-06T22:13:39.667Z,170
2022-11-06T22:15:40.717Z,170
2022-11-06T22:17:42.369Z,170
2022-11-06T22:21:45.523Z,170
2022-11-06T22:23:47.284Z,170
2022-11-06T22:25:48.952Z,170
2022-11-06T22:27:50.001Z,170
2022-11-06T22:33:54.930Z,170
2022-11-06T22:35:56.238Z,170
2022-11-06T22:37:57.386Z,170
2022-11-06T22:39:58.653Z,170
2022-11-06T22:41:59.702Z,251
2022-11-06T22:44:00.781Z,203
2022-11-06T22:48:04.120Z,203
2022-11-06T22:50:05.380Z,203
2022-11-06T22:54:07.907Z,203
2022-11-06T22:56:09.417Z,203
2022-11-06T23:00:12.107Z,203
2022-11-06T23:04:15.507Z,203
2022-11-06T23:06:16.979Z,203
2022-11-06T23:10:19.675Z,203
2022-11-06T23:14:23.031Z,203
2022-11-06T23:16:24.657Z,203
2022-11-06T23:20:27.754Z,203
2022-11-06T23:22:28.936Z,203
2022-11-06T23:24:30.576Z,255
2022-11-06T23:26:32.169Z,255
2022-11-06T23:28:33.330Z,266
2022-11-06T23:30:34.649Z,232
2022-11-06T23:32:36.364Z,191
2022-11-06T23:34:37.540Z,173
2022-11-06T23:36:39.472Z,174
2022-11-06T23:38:40.751Z,233
2022-11-06T23:42:44.230Z,182
2022-11-06T23:44:46.011Z,211
2022-11-06T23:46:47.742Z,252
2022-11-06T23:48:49.631Z,252
2022-11-06T23:52:51.979Z,257
2022-11-06T23:56:55.186Z,192
2022-11-06T23:58:56.210Z,215
